createdAt,value
2023-01-28T00:03:41.102Z,101205.06
2023-01-28T00:08:42.115Z,101209.88
2023-01-28T00:13:44.670Z,101207.47
2023-01-28T00:18:46.468Z,101208.41
2023-01-28T00:23:51.610Z,101215.78
2023-01-28T00:28:53.697Z,101217.41
2023-01-28T00:33:55.783Z,101211.13
2023-01-28T00:38:58.875Z,101215.41
2023-01-28T00:44:00.962Z,101213.75
2023-01-28T00:49:03.363Z,101212.69
2023-01-28T00:54:04.059Z,101216.31
2023-01-28T00:59:06.333Z,101217.09
2023-01-28T01:04:07.080Z,101207.56
2023-01-28T01:09:11.932Z,101222.81
2023-01-28T01:14:15.831Z,101218.50
2023-01-28T01:19:16.515Z,101221.25
2023-01-28T01:24:17.816Z,101224.06
2023-01-28T01:29:19.871Z,101227.69
2023-01-28T01:34:20.585Z,101235.44
2023-01-28T01:39:23.013Z,101238.53
2023-01-28T01:44:58.706Z,101239.59
2023-01-28T01:50:01.382Z,101242.44
2023-01-28T01:55:06.288Z,101238.50
2023-01-28T02:00:10.661Z,101239.16
2023-01-28T02:05:23.057Z,101233.78
2023-01-28T02:10:25.408Z,101232.22
2023-01-28T02:15:29.806Z,101227.69
2023-01-28T02:20:45.690Z,101228.63
2023-01-28T02:26:11.695Z,101228.75
2023-01-28T02:31:19.954Z,101231.50
2023-01-28T02:36:29.507Z,101233.16
2023-01-28T02:41:35.571Z,101243.13
2023-01-28T02:46:56.635Z,101237.47
2023-01-28T02:52:10.031Z,101242.91
2023-01-28T02:57:25.367Z,101243.63
2023-01-28T03:02:36.654Z,101247.03
2023-01-28T03:07:39.709Z,101253.22
2023-01-28T03:13:01.584Z,101241.03
2023-01-28T03:18:25.766Z,101260.53
2023-01-28T03:23:51.270Z,101250.94
2023-01-28T03:29:13.221Z,101259.41
2023-01-28T03:34:32.994Z,101258.69
2023-01-28T03:39:33.773Z,101271.66
2023-01-28T03:44:50.603Z,101269.22
2023-01-28T03:49:55.279Z,101278.53
2023-01-28T03:54:57.353Z,101282.59
2023-01-28T03:59:59.338Z,101278.34
2023-01-28T04:05:07.096Z,101279.59
2023-01-28T04:10:11.070Z,101284.97
2023-01-28T04:15:35.903Z,101289.56
2023-01-28T04:20:38.455Z,101280.56
2023-01-28T04:25:39.301Z,101291.91
2023-01-28T04:30:42.833Z,101288.97
2023-01-28T04:35:58.833Z,101296.63
2023-01-28T04:41:18.501Z,101301.59
2023-01-28T04:46:19.320Z,101304.16
2023-01-28T04:51:36.905Z,101314.63
2023-01-28T04:56:51.780Z,101326.94
2023-01-28T05:01:53.147Z,101320.88
2023-01-28T05:06:56.643Z,101334.22
2023-01-28T05:12:01.619Z,101343.28
2023-01-28T05:17:04.773Z,101341.59
2023-01-28T05:22:07.731Z,101344.72
2023-01-28T05:27:17.358Z,101344.44
2023-01-28T05:32:18.274Z,101358.56
2023-01-28T05:37:20.805Z,101354.06
2023-01-28T05:42:23.976Z,101365.69
2023-01-28T05:47:30.258Z,101369.72
2023-01-28T05:52:39.971Z,101376.13
2023-01-28T05:57:46.464Z,101391.78
2023-01-28T06:02:49.320Z,101390.34
2023-01-28T06:07:52.430Z,101379.94
2023-01-28T06:12:54.073Z,101398.81
2023-01-28T06:18:13.930Z,101417.53
2023-01-28T06:23:16.274Z,101419.25
2023-01-28T06:28:17.093Z,101426.50
2023-01-28T06:33:17.793Z,101432.78
2023-01-28T06:38:19.857Z,101438.03
2023-01-28T06:43:20.551Z,101449.94
2023-01-28T06:48:21.453Z,101442.00
2023-01-28T06:53:23.765Z,101458.81
2023-01-28T06:58:24.458Z,101454.47
2023-01-28T07:03:26.295Z,101456.22
2023-01-28T07:08:28.356Z,101466.88
2023-01-28T07:13:29.015Z,101469.84
2023-01-28T07:18:29.722Z,101466.28
2023-01-28T07:23:31.782Z,101468.03
2023-01-28T07:28:32.765Z,101468.03
2023-01-28T07:33:33.445Z,101482.56
2023-01-28T07:38:35.433Z,101478.69
2023-01-28T07:43:36.079Z,101478.84
2023-01-28T07:48:36.870Z,101478.41
2023-01-28T07:53:39.003Z,101478.41
2023-01-28T07:58:39.701Z,101477.94
2023-01-28T08:03:40.354Z,101484.28
2023-01-28T08:08:42.914Z,101488.56
2023-01-28T08:13:43.632Z,101494.09
2023-01-28T08:18:44.397Z,101486.63
2023-01-28T08:23:46.483Z,101496.66
2023-01-28T08:28:47.229Z,101490.75
2023-01-28T08:33:47.906Z,101487.69
2023-01-28T08:38:54.125Z,101487.50
2023-01-28T08:43:54.796Z,101489.91
2023-01-28T08:48:55.480Z,101499.53
2023-01-28T08:53:57.561Z,101507.44
2023-01-28T08:58:58.259Z,101511.75
2023-01-28T09:04:00.102Z,101512.28
2023-01-28T09:09:02.580Z,101510.53
2023-01-28T09:14:03.285Z,101522.78
2023-01-28T09:19:03.995Z,101521.97
2023-01-28T09:24:06.495Z,101524.63
2023-01-28T09:29:07.292Z,101524.03
2023-01-28T09:34:07.998Z,101532.94
2023-01-28T09:39:10.555Z,101527.00
2023-01-28T09:44:33.491Z,101533.19
2023-01-28T09:49:38.059Z,101527.94
2023-01-28T09:54:45.878Z,101536.19
2023-01-28T09:59:46.538Z,101530.66
2023-01-28T10:04:59.822Z,101533.97
2023-01-28T10:10:05.883Z,101533.16
2023-01-28T10:15:27.408Z,101545.78
2023-01-28T10:20:33.123Z,101546.16
2023-01-28T10:25:36.038Z,101543.84
2023-01-28T10:30:41.749Z,101551.84
2023-01-28T10:35:43.652Z,101549.59
2023-01-28T10:40:48.035Z,101548.59
2023-01-28T10:45:58.751Z,101551.84
2023-01-28T10:51:01.998Z,101558.34
2023-01-28T10:56:06.804Z,101564.97
2023-01-28T11:01:08.779Z,101567.25
2023-01-28T11:06:25.738Z,101568.97
2023-01-28T11:11:29.789Z,101562.63
2023-01-28T11:16:30.792Z,101559.13
2023-01-28T11:21:33.023Z,101554.38
2023-01-28T11:26:39.153Z,101562.19
2023-01-28T11:31:44.325Z,101552.47
2023-01-28T11:36:52.146Z,101549.69
2023-01-28T11:41:54.806Z,101543.00
2023-01-28T11:47:17.236Z,101539.91
2023-01-28T11:52:26.955Z,101541.09
2023-01-28T11:57:39.905Z,101529.91
2023-01-28T12:02:52.113Z,101539.03
2023-01-28T12:07:58.943Z,101530.94
2023-01-28T12:13:18.587Z,101520.31
2023-01-28T12:18:42.293Z,101526.41
2023-01-28T12:24:01.148Z,101521.00
2023-01-28T12:29:15.804Z,101522.69
2023-01-28T12:34:38.025Z,101514.81
2023-01-28T12:39:53.431Z,101512.75
2023-01-28T12:45:00.612Z,101512.19
2023-01-28T12:50:07.151Z,101504.28
2023-01-28T12:55:16.449Z,101511.50
2023-01-28T13:00:27.431Z,101513.69
2023-01-28T13:05:35.060Z,101506.38
2023-01-28T13:10:39.588Z,101505.84
2023-01-28T13:15:44.527Z,101515.66
2023-01-28T13:20:49.736Z,101510.97
2023-01-28T13:25:52.413Z,101516.81
2023-01-28T13:31:03.541Z,101514.38
2023-01-28T13:36:26.564Z,101510.00
2023-01-28T13:41:38.511Z,101517.28
2023-01-28T13:46:40.604Z,101530.72
2023-01-28T13:51:56.110Z,101510.25
2023-01-28T13:57:17.310Z,101525.22
2023-01-28T14:02:46.645Z,101535.44
2023-01-28T14:08:10.719Z,101537.50
2023-01-28T14:13:50.412Z,101539.63
2023-01-28T14:18:53.307Z,101563.72
2023-01-28T14:23:58.130Z,101551.72
2023-01-28T14:29:10.120Z,101557.31
2023-01-28T14:34:21.183Z,101550.38
2023-01-28T14:39:27.268Z,101546.06
2023-01-28T14:44:32.752Z,101548.41
2023-01-28T14:49:49.031Z,101537.13
2023-01-28T14:55:01.602Z,101553.91
2023-01-28T15:00:02.296Z,101543.25
2023-01-28T15:05:14.454Z,101551.72
2023-01-28T15:10:18.255Z,101548.03
2023-01-28T15:15:26.689Z,101539.72
2023-01-28T15:20:28.830Z,101552.31
2023-01-28T15:25:30.974Z,101549.22
2023-01-28T15:30:33.428Z,101535.75
2023-01-28T15:35:37.433Z,101526.13
2023-01-28T15:40:43.356Z,101531.50
2023-01-28T15:45:47.990Z,101523.75
2023-01-28T15:50:59.804Z,101512.00
2023-01-28T15:56:09.076Z,101520.38
2023-01-28T16:01:19.591Z,101513.75
2023-01-28T16:06:23.482Z,101518.84
2023-01-28T16:11:29.259Z,101509.00
2023-01-28T16:16:33.112Z,101511.09
2023-01-28T16:21:38.521Z,101505.38
2023-01-28T16:26:39.299Z,101511.38
2023-01-28T16:31:40.166Z,101524.75
2023-01-28T16:36:42.538Z,101521.75
2023-01-28T16:41:45.473Z,101528.00
2023-01-28T16:46:46.922Z,101534.34
2023-01-28T16:51:48.985Z,101529.28
2023-01-28T16:56:50.297Z,101529.56
2023-01-28T17:01:51.163Z,101522.34
2023-01-28T17:06:54.054Z,101522.28
2023-01-28T17:11:54.783Z,101525.22
2023-01-28T17:16:55.533Z,101543.34
2023-01-28T17:21:59.177Z,101561.81
2023-01-28T17:26:59.882Z,101555.56
2023-01-28T17:32:00.617Z,101563.97
2023-01-28T17:37:02.711Z,101572.84
2023-01-28T17:42:03.495Z,101580.00
2023-01-28T17:47:04.240Z,101590.75
2023-01-28T17:52:06.415Z,101599.38
2023-01-28T17:57:07.127Z,101592.47
2023-01-28T18:02:10.973Z,101596.41
2023-01-28T18:07:13.065Z,101597.03
2023-01-28T18:12:16.494Z,101595.41
2023-01-28T18:17:17.307Z,101587.88
2023-01-28T18:22:19.543Z,101581.22
2023-01-28T18:27:20.977Z,101591.09
2023-01-28T18:32:21.631Z,101603.41
2023-01-28T18:37:23.717Z,101600.50
2023-01-28T18:42:24.406Z,101602.44
2023-01-28T18:47:25.100Z,101609.09
2023-01-28T18:52:27.145Z,101624.00
2023-01-28T18:57:27.926Z,101626.81
2023-01-28T19:02:28.802Z,101638.38
2023-01-28T19:07:32.736Z,101655.09
2023-01-28T19:12:33.428Z,101673.50
2023-01-28T19:17:35.539Z,101676.13
2023-01-28T19:22:37.717Z,101671.91
2023-01-28T19:27:38.474Z,101670.16
2023-01-28T19:32:39.214Z,101665.84
2023-01-28T19:37:41.229Z,101658.84
2023-01-28T19:42:41.936Z,101649.03
2023-01-28T19:47:42.610Z,101652.03
2023-01-28T19:52:44.658Z,101641.50
2023-01-28T19:57:45.534Z,101651.72
2023-01-28T20:02:46.259Z,101647.34
2023-01-28T20:07:48.376Z,101646.66
2023-01-28T20:12:49.096Z,101638.25
2023-01-28T20:17:49.834Z,101626.72
2023-01-28T20:22:51.857Z,101637.69
2023-01-28T20:27:52.547Z,101611.44
2023-01-28T20:32:53.337Z,101601.75
2023-01-28T20:37:55.376Z,101614.28
2023-01-28T20:42:56.054Z,101595.75
2023-01-28T20:47:56.768Z,101595.88
2023-01-28T20:52:58.932Z,101616.28
2023-01-28T20:57:59.727Z,101606.69
2023-01-28T21:03:00.574Z,101616.13
2023-01-28T21:08:02.606Z,101627.50
2023-01-28T21:13:03.319Z,101629.50
2023-01-28T21:18:04.845Z,101637.69
2023-01-28T21:23:06.975Z,101645.00
2023-01-28T21:28:07.764Z,101648.66
2023-01-28T21:33:08.942Z,101654.84
2023-01-28T21:38:12.349Z,101650.63
2023-01-28T21:43:13.518Z,101647.84
2023-01-28T21:48:14.347Z,101657.28
2023-01-28T21:53:16.399Z,101658.75
2023-01-28T21:58:34.610Z,101650.34
2023-01-28T22:03:35.296Z,101642.38
2023-01-28T22:08:37.402Z,101652.91
2023-01-28T22:13:38.441Z,101644.72
2023-01-28T22:18:39.128Z,101634.97
2023-01-28T22:23:41.168Z,101627.38
2023-01-28T22:28:41.822Z,101620.84
2023-01-28T22:33:43.482Z,101617.06
2023-01-28T22:38:46.827Z,101611.44
2023-01-28T22:43:48.065Z,101606.66
2023-01-28T22:48:49.718Z,101617.88
2023-01-28T22:53:52.745Z,101606.84
2023-01-28T22:58:55.666Z,101606.66
2023-01-28T23:03:56.839Z,101600.97
2023-01-28T23:08:58.911Z,101612.16
2023-01-28T23:14:19.429Z,101608.91
2023-01-28T23:19:37.826Z,101622.56
2023-01-28T23:24:39.842Z,101615.22
2023-01-28T23:29:40.493Z,101613.78
2023-01-28T23:34:44.429Z,101603.59
2023-01-28T23:39:46.451Z,101608.97
2023-01-28T23:44:47.578Z,101619.63
2023-01-28T23:49:48.239Z,101623.56
2023-01-28T23:54:50.326Z,101612.53
2023-01-28T23:59:51.886Z,101588.22
